createdAt,value
2019-02-05T00:02:11.938Z,5.00
2019-02-05T00:04:42.881Z,4.90
2019-02-05T00:07:12.800Z,4.90
2019-02-05T00:09:42.860Z,5.00
2019-02-05T00:12:13.017Z,5.10
2019-02-05T00:14:43.320Z,5.00
2019-02-05T00:17:13.237Z,5.00
2019-02-05T00:19:43.344Z,5.00
2019-02-05T00:22:13.882Z,4.90
2019-02-05T00:24:44.155Z,4.90
2019-02-05T00:27:14.066Z,4.90
2019-02-05T00:29:43.986Z,4.90
2019-02-05T00:32:13.923Z,5.00
2019-02-05T00:34:44.103Z,5.10
2019-02-05T00:37:14.113Z,5.00
2019-02-05T00:39:44.229Z,5.00
2019-02-05T00:42:14.139Z,5.00
2019-02-05T00:44:44.055Z,5.00
2019-02-05T00:47:14.063Z,5.00
2019-02-05T00:49:43.981Z,5.00
2019-02-05T00:52:14.283Z,4.90
2019-02-05T00:54:44.592Z,5.00
2019-02-05T00:57:14.505Z,5.10
2019-02-05T00:59:44.515Z,5.10
2019-02-05T01:02:14.824Z,5.10
2019-02-05T01:04:44.834Z,5.20
2019-02-05T01:07:15.340Z,5.20
2019-02-05T01:09:45.251Z,5.20
2019-02-05T01:12:15.270Z,5.20
2019-02-05T01:14:45.175Z,5.10
2019-02-05T01:17:15.287Z,5.10
2019-02-05T01:19:45.200Z,5.10
2019-02-05T01:22:15.211Z,5.20
2019-02-05T01:24:45.128Z,5.20
2019-02-05T01:27:15.042Z,5.20
2019-02-05T01:29:44.957Z,5.20
2019-02-05T01:32:15.263Z,5.20
2019-02-05T01:34:45.864Z,5.30
2019-02-05T01:37:16.159Z,5.20
2019-02-05T01:39:46.474Z,5.10
2019-02-05T01:42:16.390Z,5.10
2019-02-05T01:44:46.523Z,5.20
2019-02-05T01:47:16.708Z,5.30
2019-02-05T01:49:46.723Z,5.20
2019-02-05T01:52:16.633Z,5.20
2019-02-05T01:54:46.545Z,5.30
2019-02-05T01:57:16.658Z,5.30
2019-02-05T01:59:47.059Z,5.20
2019-02-05T02:02:17.564Z,5.20
2019-02-05T02:04:47.576Z,5.30
2019-02-05T02:07:17.492Z,5.30
2019-02-05T02:09:47.403Z,5.40
2019-02-05T02:12:17.517Z,5.30
2019-02-05T02:14:47.431Z,5.30
2019-02-05T02:17:17.385Z,5.40
2019-02-05T02:19:48.411Z,5.40
2019-02-05T02:22:18.446Z,5.40
2019-02-05T02:24:48.658Z,5.30
2019-02-05T02:27:19.704Z,5.40
2019-02-05T02:29:49.994Z,5.40
2019-02-05T02:32:19.967Z,5.40
2019-02-05T02:34:49.883Z,5.40
2019-02-05T02:37:19.766Z,5.40
2019-02-05T02:39:50.102Z,5.30
2019-02-05T02:42:20.017Z,5.40
2019-02-05T02:44:50.423Z,5.30
2019-02-05T02:47:20.333Z,5.40
2019-02-05T02:49:50.248Z,5.40
2019-02-05T02:52:20.258Z,5.40
2019-02-05T02:54:50.173Z,5.50
2019-02-05T02:57:20.477Z,5.40
2019-02-05T02:59:50.394Z,5.40
2019-02-05T03:02:20.310Z,5.50
2019-02-05T03:04:50.219Z,5.60
2019-02-05T03:07:20.133Z,5.50
2019-02-05T03:09:50.048Z,5.50
2019-02-05T03:12:19.959Z,5.50
2019-02-05T03:14:50.172Z,5.40
2019-02-05T03:17:20.087Z,5.50
2019-02-05T03:19:50.000Z,5.50
2019-02-05T03:22:19.911Z,5.50
2019-02-05T03:24:49.927Z,5.50
2019-02-05T03:27:19.838Z,5.50
2019-02-05T03:29:49.945Z,5.60
2019-02-05T03:32:19.872Z,5.60
2019-02-05T03:34:49.868Z,5.50
2019-02-05T03:37:19.787Z,5.60
2019-02-05T03:39:50.196Z,5.50
2019-02-05T03:42:20.107Z,5.40
2019-02-05T03:44:50.024Z,5.50
2019-02-05T03:47:21.120Z,5.40
2019-02-05T03:49:51.653Z,5.50
2019-02-05T03:52:23.338Z,5.60
2019-02-05T03:55:12.431Z,5.70
2019-02-05T03:57:50.261Z,5.60
2019-02-05T04:00:56.444Z,5.60
2019-02-05T04:04:02.709Z,5.60
2019-02-05T04:07:03.526Z,5.60
2019-02-05T04:09:52.987Z,5.60
2019-02-05T04:12:45.412Z,5.60
2019-02-05T04:15:28.204Z,5.50
2019-02-05T04:18:26.823Z,5.60
2019-02-05T04:21:30.942Z,5.50
2019-02-05T04:24:32.315Z,5.60
2019-02-05T04:27:24.542Z,5.60
2019-02-05T04:30:23.654Z,5.70
2019-02-05T04:33:20.612Z,5.60
2019-02-05T04:36:19.132Z,5.60
2019-02-05T04:39:23.833Z,5.70
2019-02-05T04:42:10.262Z,5.70
2019-02-05T04:45:07.015Z,5.70
2019-02-05T04:48:01.010Z,5.70
2019-02-05T04:50:56.680Z,5.70
2019-02-05T04:53:39.569Z,5.70
2019-02-05T04:56:34.712Z,5.70
2019-02-05T04:59:44.080Z,5.80
2019-02-05T05:02:41.125Z,5.80
2019-02-05T05:05:17.925Z,5.50
2019-02-05T05:08:01.208Z,5.50
2019-02-05T05:10:31.120Z,5.70
2019-02-05T05:13:01.036Z,5.50
2019-02-05T05:15:30.948Z,5.70
2019-02-05T05:18:00.860Z,5.70
2019-02-05T05:20:31.552Z,5.80
2019-02-05T05:23:01.669Z,5.80
2019-02-05T05:25:33.158Z,5.70
2019-02-05T05:28:10.010Z,5.80
2019-02-05T05:30:36.129Z,5.70
2019-02-05T05:33:06.482Z,5.80
2019-02-05T05:35:44.080Z,5.90
2019-02-05T05:38:08.436Z,5.80
2019-02-05T05:40:38.347Z,5.90
2019-02-05T05:43:08.448Z,5.80
2019-02-05T05:45:38.362Z,5.90
2019-02-05T05:48:08.373Z,5.70
2019-02-05T05:50:38.386Z,5.90
2019-02-05T05:53:08.882Z,5.90
2019-02-05T05:55:38.825Z,5.80
2019-02-05T05:58:08.718Z,5.90
2019-02-05T06:00:38.632Z,5.90
2019-02-05T06:03:08.646Z,5.80
2019-02-05T06:05:38.652Z,5.80
2019-02-05T06:08:09.173Z,6.00
2019-02-05T06:10:39.071Z,5.80
2019-02-05T06:13:08.864Z,5.80
2019-02-05T06:15:41.590Z,5.80
2019-02-05T06:18:13.754Z,5.80
2019-02-05T06:20:43.737Z,5.80
2019-02-05T06:23:13.756Z,5.90
2019-02-05T06:25:43.798Z,6.00
2019-02-05T06:28:13.873Z,5.80
2019-02-05T06:30:44.081Z,5.80
2019-02-05T06:33:14.489Z,5.90
2019-02-05T06:35:44.498Z,6.00
2019-02-05T06:38:14.804Z,5.90
2019-02-05T06:40:45.116Z,5.80
2019-02-05T06:43:15.027Z,5.90
2019-02-05T06:45:45.236Z,5.90
2019-02-05T06:48:15.541Z,6.00
2019-02-05T06:50:45.453Z,6.00
2019-02-05T06:53:15.565Z,6.00
2019-02-05T06:55:45.476Z,6.00
2019-02-05T06:58:15.391Z,6.00
2019-02-05T07:00:45.504Z,6.00
2019-02-05T07:03:16.301Z,6.00
2019-02-05T07:05:46.509Z,6.00
2019-02-05T07:08:16.523Z,6.10
2019-02-05T07:10:46.435Z,6.10
2019-02-05T07:13:16.348Z,6.10
2019-02-05T07:15:46.260Z,6.00
2019-02-05T07:18:16.666Z,6.10
2019-02-05T07:20:46.580Z,6.00
2019-02-05T07:23:16.986Z,6.00
2019-02-05T07:25:46.898Z,6.00
2019-02-05T07:28:17.106Z,6.00
2019-02-05T07:30:47.028Z,6.10
2019-02-05T07:33:17.328Z,6.10
2019-02-05T07:35:47.935Z,6.10
2019-02-05T07:38:17.948Z,6.10
2019-02-05T07:40:47.953Z,6.20
2019-02-05T07:43:17.867Z,6.20
2019-02-05T07:45:47.782Z,6.30
2019-02-05T07:48:17.695Z,6.30
2019-02-05T07:50:48.492Z,6.20
2019-02-05T07:53:18.997Z,6.30
2019-02-05T07:55:48.907Z,6.30
2019-02-05T07:58:18.823Z,6.30
2019-02-05T08:00:48.838Z,6.30
2019-02-05T08:03:18.748Z,6.40
2019-02-05T08:05:48.664Z,6.30
2019-02-05T08:08:19.068Z,6.40
2019-02-05T08:10:49.178Z,6.30
2019-02-05T08:13:19.090Z,6.50
2019-02-05T08:15:49.437Z,6.50
2019-02-05T08:18:19.473Z,6.50
2019-02-05T08:20:49.620Z,6.40
2019-02-05T08:23:19.530Z,6.30
2019-02-05T08:25:49.446Z,6.40
2019-02-05T08:28:19.366Z,6.50
2019-02-05T08:30:50.452Z,6.40
2019-02-05T08:33:20.368Z,6.40
2019-02-05T08:35:50.574Z,6.40
2019-02-05T08:38:20.979Z,6.50
2019-02-05T08:40:51.189Z,6.50
2019-02-05T08:43:21.297Z,6.40
2019-02-05T08:45:56.708Z,6.50
2019-02-05T08:48:23.091Z,6.50
2019-02-05T08:50:53.003Z,6.60
2019-02-05T08:53:23.017Z,6.60
2019-02-05T08:55:53.224Z,6.50
2019-02-05T08:58:30.604Z,6.60
2019-02-05T09:00:55.018Z,6.70
2019-02-05T09:03:25.129Z,6.60
2019-02-05T09:05:55.040Z,6.70
2019-02-05T09:08:24.955Z,6.70
2019-02-05T09:10:55.460Z,6.80
2019-02-05T09:13:25.467Z,6.70
2019-02-05T09:15:55.873Z,6.80
2019-02-05T09:18:25.788Z,6.80
2019-02-05T09:20:55.702Z,6.80
2019-02-05T09:23:26.793Z,6.90
2019-02-05T09:25:57.298Z,6.80
2019-02-05T09:28:27.264Z,6.90
2019-02-05T09:30:57.615Z,7.00
2019-02-05T09:33:27.529Z,7.00
2019-02-05T09:35:57.639Z,6.90
2019-02-05T09:38:27.847Z,7.00
2019-02-05T09:40:58.355Z,7.10
2019-02-05T09:43:28.267Z,7.10
2019-02-05T09:45:58.768Z,7.20
2019-02-05T09:48:28.879Z,7.20
2019-02-05T09:50:59.079Z,7.30
2019-02-05T09:53:29.786Z,7.30
2019-02-05T09:56:00.096Z,7.30
2019-02-05T09:58:30.206Z,7.40
2019-02-05T10:01:00.123Z,7.40
2019-02-05T10:03:30.036Z,7.50
2019-02-05T10:05:59.948Z,7.50
2019-02-05T10:08:30.547Z,7.50
2019-02-05T10:11:00.462Z,7.50
2019-02-05T10:13:30.572Z,7.60
2019-02-05T10:16:00.779Z,7.60
2019-02-05T10:18:31.284Z,7.70
2019-02-05T10:21:01.193Z,7.70
2019-02-05T10:23:31.926Z,7.70
2019-02-05T10:26:02.006Z,7.80
2019-02-05T10:28:32.518Z,7.80
2019-02-05T10:31:03.091Z,7.80
2019-02-05T10:33:33.124Z,7.90
2019-02-05T10:36:03.037Z,7.80
2019-02-05T10:38:32.951Z,7.70
2019-02-05T10:41:04.449Z,7.90
2019-02-05T10:43:34.745Z,7.90
2019-02-05T10:46:06.634Z,8.00
2019-02-05T10:48:36.533Z,8.00
2019-02-05T10:51:06.943Z,8.10
2019-02-05T10:53:36.854Z,8.10
2019-02-05T10:56:06.975Z,8.10
2019-02-05T10:58:36.977Z,8.20
2019-02-05T11:01:07.190Z,8.30
2019-02-05T11:03:37.393Z,8.30
2019-02-05T11:06:07.403Z,8.30
2019-02-05T11:08:37.321Z,8.30
2019-02-05T11:11:07.432Z,8.30
2019-02-05T11:13:38.177Z,8.30
2019-02-05T11:16:08.142Z,8.40
2019-02-05T11:18:38.150Z,8.30
2019-02-05T11:21:08.070Z,8.40
2019-02-05T11:23:38.338Z,8.40
2019-02-05T11:26:08.191Z,8.50
2019-02-05T11:28:38.690Z,8.50
2019-02-05T11:31:08.603Z,8.60
2019-02-05T11:33:38.613Z,8.60
2019-02-05T11:36:08.792Z,8.70
2019-02-05T11:38:38.736Z,8.70
2019-02-05T11:41:08.651Z,8.50
2019-02-05T11:43:38.955Z,8.70
2019-02-05T11:46:08.888Z,8.70
2019-02-05T11:48:38.782Z,8.60
2019-02-05T11:51:08.696Z,8.50
2019-02-05T11:53:38.611Z,8.60
2019-02-05T11:56:08.624Z,8.50
2019-02-05T11:58:39.040Z,8.60
2019-02-05T12:01:10.810Z,8.70
2019-02-05T12:03:40.919Z,8.70
2019-02-05T12:06:10.832Z,8.80
2019-02-05T12:08:40.844Z,8.80
2019-02-05T12:11:11.646Z,8.90
2019-02-05T12:13:41.848Z,8.90
2019-02-05T12:16:12.256Z,9.00
2019-02-05T12:18:42.664Z,9.10
2019-02-05T12:21:12.672Z,9.20
2019-02-05T12:23:42.889Z,9.20
2019-02-05T12:26:12.794Z,9.30
2019-02-05T12:28:42.903Z,9.30
2019-02-05T12:31:13.112Z,9.30
2019-02-05T12:33:43.027Z,9.40
2019-02-05T12:36:14.509Z,9.50
2019-02-05T12:38:44.425Z,9.70
2019-02-05T12:41:14.638Z,9.50
2019-02-05T12:43:44.644Z,9.60
2019-02-05T12:46:14.559Z,9.80
2019-02-05T12:48:44.570Z,9.60
2019-02-05T12:51:15.564Z,9.70
2019-02-05T12:53:45.363Z,9.80
2019-02-05T12:56:15.394Z,9.80
2019-02-05T12:58:45.321Z,10.00
2019-02-05T13:01:15.220Z,9.90
2019-02-05T13:03:45.167Z,9.90
2019-02-05T13:06:15.149Z,10.00
2019-02-05T13:08:44.949Z,10.00
2019-02-05T13:11:15.072Z,10.10
2019-02-05T13:13:45.585Z,10.10
2019-02-05T13:16:15.684Z,10.00
2019-02-05T13:18:45.895Z,10.10
2019-02-05T13:21:15.828Z,10.00
2019-02-05T13:23:45.822Z,10.10
2019-02-05T13:26:15.854Z,10.20
2019-02-05T13:28:46.136Z,10.10
2019-02-05T13:31:16.051Z,10.30
2019-02-05T13:33:45.964Z,10.20
2019-02-05T13:36:16.368Z,10.40
2019-02-05T13:38:46.284Z,10.30
2019-02-05T13:41:16.642Z,10.40
2019-02-05T13:43:46.797Z,10.30
2019-02-05T13:46:17.104Z,10.60
2019-02-05T13:48:47.217Z,10.60
2019-02-05T13:51:17.337Z,10.50
2019-02-05T13:53:47.634Z,10.70
2019-02-05T13:56:18.638Z,10.70
2019-02-05T13:58:48.636Z,10.70
2019-02-05T14:01:20.315Z,10.60
2019-02-05T14:03:50.538Z,10.70
2019-02-05T14:06:21.180Z,10.70
2019-02-05T14:08:51.141Z,10.60
2019-02-05T14:11:21.251Z,10.60
2019-02-05T14:13:51.167Z,10.70
2019-02-05T14:16:21.078Z,10.80
2019-02-05T14:18:55.487Z,10.80
2019-02-05T14:21:23.068Z,10.80
2019-02-05T14:23:53.570Z,10.70
2019-02-05T14:26:23.586Z,10.80
2019-02-05T14:28:53.497Z,10.80
2019-02-05T14:31:31.168Z,10.80
2019-02-05T14:33:55.438Z,10.90
2019-02-05T14:36:25.398Z,10.90
2019-02-05T14:38:55.902Z,10.90
2019-02-05T14:41:25.914Z,10.90
2019-02-05T14:43:55.927Z,10.90
2019-02-05T14:46:25.939Z,10.90
2019-02-05T14:48:55.949Z,10.90
2019-02-05T14:51:26.356Z,11.00
2019-02-05T14:53:56.464Z,11.00
2019-02-05T14:56:26.904Z,11.00
2019-02-05T14:58:56.978Z,11.00
2019-02-05T15:01:26.990Z,11.00
2019-02-05T15:03:57.409Z,11.00
2019-02-05T15:06:27.308Z,11.20
2019-02-05T15:08:57.421Z,11.10
2019-02-05T15:11:27.333Z,11.20
2019-02-05T15:13:57.245Z,11.10
2019-02-05T15:16:27.356Z,11.20
2019-02-05T15:18:58.444Z,11.20
2019-02-05T15:21:28.363Z,11.20
2019-02-05T15:23:58.424Z,11.30
2019-02-05T15:26:28.385Z,11.20
2019-02-05T15:28:58.395Z,11.30
2019-02-05T15:31:28.507Z,11.20
2019-02-05T15:34:00.060Z,11.40
2019-02-05T15:36:31.579Z,11.30
2019-02-05T15:39:01.924Z,11.30
2019-02-05T15:41:31.901Z,11.30
2019-02-05T15:44:01.822Z,11.40
2019-02-05T15:46:32.608Z,11.50
2019-02-05T15:49:02.819Z,11.30
2019-02-05T15:51:32.735Z,11.30
2019-02-05T15:54:03.419Z,11.30
2019-02-05T15:56:33.751Z,11.10
2019-02-05T15:59:03.553Z,11.00
2019-02-05T16:01:33.466Z,11.00
2019-02-05T16:04:03.388Z,10.90
2019-02-05T16:06:33.491Z,10.50
2019-02-05T16:09:05.271Z,10.40
2019-02-05T16:11:35.184Z,10.20
2019-02-05T16:14:05.392Z,10.20
2019-02-05T16:16:35.304Z,10.10
2019-02-05T16:19:05.513Z,10.10
2019-02-05T16:21:35.623Z,10.10
2019-02-05T16:24:06.889Z,10.10
2019-02-05T16:26:36.826Z,10.10
2019-02-05T16:29:07.558Z,10.00
2019-02-05T16:31:37.536Z,10.00
2019-02-05T16:34:07.449Z,10.00
2019-02-05T16:36:37.459Z,10.00
2019-02-05T16:39:10.923Z,10.00
2019-02-05T16:41:41.148Z,10.10
2019-02-05T16:44:11.233Z,10.00
2019-02-05T16:46:41.244Z,10.00
2019-02-05T16:49:11.163Z,10.00
2019-02-05T16:51:41.072Z,10.00
2019-02-05T16:54:10.986Z,10.00
2019-02-05T16:56:41.295Z,10.00
2019-02-05T16:59:11.216Z,10.00
2019-02-05T17:01:41.512Z,10.00
2019-02-05T17:04:11.626Z,10.00
2019-02-05T17:06:41.837Z,10.00
2019-02-05T17:09:16.756Z,9.90
2019-02-05T17:11:47.227Z,9.90
2019-02-05T17:14:17.183Z,9.90
2019-02-05T17:16:47.086Z,9.90
2019-02-05T17:19:17.001Z,9.90
2019-02-05T17:21:46.914Z,9.90
2019-02-05T17:24:17.119Z,9.80
2019-02-05T17:26:47.528Z,9.80
2019-02-05T17:29:17.446Z,9.80
2019-02-05T17:31:47.749Z,9.90
2019-02-05T17:34:17.956Z,9.80
2019-02-05T17:36:47.869Z,9.90
2019-02-05T17:39:17.788Z,9.90
2019-02-05T17:41:48.278Z,9.80
2019-02-05T17:44:19.477Z,9.80
2019-02-05T17:46:49.390Z,9.80
2019-02-05T17:49:19.302Z,9.90
2019-02-05T17:51:49.510Z,9.90
2019-02-05T17:54:19.720Z,9.90
2019-02-05T17:56:49.633Z,9.90
2019-02-05T17:59:20.237Z,9.80
2019-02-05T18:01:50.344Z,9.80
2019-02-05T18:04:20.356Z,9.80
2019-02-05T18:06:50.467Z,9.80
2019-02-05T18:09:20.382Z,9.70
2019-02-05T18:11:50.299Z,9.70
2019-02-05T18:14:20.206Z,9.70
2019-02-05T18:16:50.131Z,9.80
2019-02-05T18:19:20.133Z,9.70
2019-02-05T18:21:50.050Z,9.80
2019-02-05T18:24:19.961Z,9.80
2019-02-05T18:26:49.871Z,9.80
2019-02-05T18:29:19.786Z,9.80
2019-02-05T18:31:49.701Z,9.70
2019-02-05T18:34:19.909Z,9.80
2019-02-05T18:36:50.213Z,9.80
2019-02-05T18:39:20.132Z,9.90
2019-02-05T18:41:50.041Z,9.90
2019-02-05T18:44:19.954Z,9.90
2019-02-05T18:46:49.869Z,9.90
2019-02-05T18:49:20.077Z,10.00
2019-02-05T18:51:49.994Z,9.80
2019-02-05T18:54:19.903Z,9.80
2019-02-05T18:56:49.841Z,9.90
2019-02-05T18:59:19.928Z,9.90
2019-02-05T19:01:49.840Z,9.90
2019-02-05T19:04:19.952Z,9.80
2019-02-05T19:06:49.968Z,10.00
2019-02-05T19:09:20.468Z,10.00
2019-02-05T19:11:50.380Z,10.10
2019-02-05T19:14:23.165Z,10.00
2019-02-05T19:16:52.078Z,10.00
2019-02-05T19:19:21.990Z,9.90
2019-02-05T19:21:51.905Z,10.00
2019-02-05T19:24:23.284Z,10.00
2019-02-05T19:26:53.205Z,9.90
2019-02-05T19:29:23.162Z,10.00
2019-02-05T19:31:53.529Z,10.00
2019-02-05T19:34:23.539Z,10.00
2019-02-05T19:36:54.615Z,9.90
2019-02-05T19:39:24.542Z,9.90
2019-02-05T19:41:55.046Z,10.00
2019-02-05T19:44:24.964Z,10.00
2019-02-05T19:46:56.560Z,9.90
2019-02-05T19:49:29.422Z,9.90
2019-02-05T19:51:59.616Z,10.00
2019-02-05T19:54:30.973Z,9.90
2019-02-05T19:57:02.107Z,9.90
2019-02-05T19:59:32.327Z,10.00
2019-02-05T20:02:03.104Z,10.00
2019-02-05T20:04:33.375Z,10.00
2019-02-05T20:07:03.610Z,10.00
2019-02-05T20:09:34.225Z,10.00
2019-02-05T20:12:05.124Z,10.00
2019-02-05T20:14:35.971Z,10.00
2019-02-05T20:17:07.113Z,10.00
2019-02-05T20:19:37.440Z,9.90
2019-02-05T20:22:07.825Z,9.90
2019-02-05T20:24:38.034Z,9.90
2019-02-05T20:27:08.832Z,10.00
2019-02-05T20:29:39.338Z,10.00
2019-02-05T20:32:11.212Z,10.00
2019-02-05T20:34:41.814Z,9.90
2019-02-05T20:37:12.733Z,9.90
2019-02-05T20:39:43.167Z,9.90
2019-02-05T20:42:13.719Z,10.00
2019-02-05T20:44:44.321Z,10.10
2019-02-05T20:47:15.066Z,10.10
2019-02-05T20:49:45.481Z,10.10
2019-02-05T20:52:16.031Z,10.10
2019-02-05T20:54:47.229Z,10.20
2019-02-05T20:57:17.921Z,10.20
2019-02-05T20:59:48.623Z,10.20
2019-02-05T21:02:18.852Z,10.10
2019-02-05T21:04:49.235Z,10.10
2019-02-05T21:07:20.031Z,10.10
2019-02-05T21:09:50.532Z,10.10
2019-02-05T21:12:21.092Z,10.10
2019-02-05T21:14:51.244Z,10.10
2019-02-05T21:17:21.933Z,10.20
2019-02-05T21:19:52.564Z,10.10
2019-02-05T21:22:23.241Z,10.10
2019-02-05T21:24:53.250Z,10.20
2019-02-05T21:27:23.268Z,10.20
2019-02-05T21:29:53.277Z,10.20
2019-02-05T21:32:23.681Z,10.10
2019-02-05T21:34:53.695Z,10.20
2019-02-05T21:37:23.602Z,10.10
2019-02-05T21:40:02.138Z,10.20
2019-02-05T21:42:25.199Z,10.20
2019-02-05T21:44:55.703Z,10.10
2019-02-05T21:47:25.621Z,10.10
2019-02-05T21:49:55.530Z,10.20
2019-02-05T21:52:25.443Z,10.20
2019-02-05T21:54:55.506Z,10.10
2019-02-05T21:57:25.564Z,10.20
2019-02-05T21:59:55.973Z,10.20
2019-02-05T22:02:25.921Z,10.30
2019-02-05T22:04:56.683Z,10.30
2019-02-05T22:07:26.692Z,10.30
2019-02-05T22:09:56.900Z,10.40
2019-02-05T22:12:27.297Z,10.30
2019-02-05T22:14:57.218Z,10.30
2019-02-05T22:17:27.432Z,10.30
2019-02-05T22:19:57.637Z,10.20
2019-02-05T22:22:27.552Z,10.30
2019-02-05T22:24:57.758Z,10.30
2019-02-05T22:27:27.768Z,10.30
2019-02-05T22:29:57.976Z,10.30
2019-02-05T22:32:28.187Z,10.30
2019-02-05T22:34:58.197Z,10.20
2019-02-05T22:37:28.113Z,10.20
2019-02-05T22:39:58.122Z,10.20
2019-02-05T22:42:28.232Z,10.20
2019-02-05T22:44:58.738Z,10.20
2019-02-05T22:47:28.651Z,10.20
2019-02-05T22:49:58.712Z,10.40
2019-02-05T22:52:28.674Z,10.40
2019-02-05T22:54:58.588Z,10.30
2019-02-05T22:57:31.658Z,10.30
2019-02-05T23:00:00.581Z,10.30
2019-02-05T23:02:30.687Z,10.30
2019-02-05T23:05:36.775Z,10.40
2019-02-05T23:08:08.557Z,10.30
2019-02-05T23:11:03.323Z,10.40
2019-02-05T23:13:29.422Z,10.40
2019-02-05T23:15:59.237Z,10.40
2019-02-05T23:18:29.641Z,10.30
2019-02-05T23:20:59.557Z,10.40
2019-02-05T23:23:29.763Z,10.30
2019-02-05T23:25:59.676Z,10.30
2019-02-05T23:28:29.793Z,10.40
2019-02-05T23:30:59.900Z,10.40
2019-02-05T23:33:29.814Z,10.40
2019-02-05T23:35:59.822Z,10.40
2019-02-05T23:38:30.027Z,10.40
2019-02-05T23:41:00.141Z,10.30
2019-02-05T23:43:30.349Z,10.30
2019-02-05T23:46:01.841Z,10.40
2019-02-05T23:51:27.617Z,10.30
2019-02-05T23:53:57.529Z,10.40
2019-02-05T23:56:27.642Z,10.40
2019-02-05T23:58:57.847Z,10.30
